N4338C ULWC-ULLI
Flight info
| Callsign | N4338C |
|---|---|
| Flight time | 0h 45m |
| Altitude | 38000 |
| Route | LUSEB1G LUSEB DCT VUZMI M60 LEDBA DCT BEPOL BEPOL1V |
| Aircraft | CL60/M-SADE3FGHIJ3J4J7P2RWXY/HB1D1 |
Departure
| Time | 2026-04-26 16:30 |
|---|---|
| Airport | Cherepovets Airport (ULWC) |
Arrival
| Time | 2026-04-26 17:15 |
|---|---|
| Airport | Pulkovo Airport (ULLI) |
| Time | Latitude | Longitude | Altitude | Speed | Heading |
|---|---|---|---|---|---|
| 2026-04-26 16:27 | 59.27949 | 38.01984 | 377 ft | 3 kts | 133° |
| 2026-04-26 16:27 | 59.27917 | 38.02052 | 378 ft | 10 kts | 133° |
| 2026-04-26 16:27 | 59.27847 | 38.02201 | 379 ft | 17 kts | 139° |
| 2026-04-26 16:27 | 59.27755 | 38.02142 | 378 ft | 20 kts | 222° |
| 2026-04-26 16:28 | 59.27600 | 38.01867 | 375 ft | 38 kts | 222° |
| 2026-04-26 16:28 | 59.27374 | 38.01470 | 372 ft | 45 kts | 223° |
| 2026-04-26 16:28 | 59.27143 | 38.01065 | 369 ft | 42 kts | 221° |
| 2026-04-26 16:28 | 59.26928 | 38.00682 | 369 ft | 41 kts | 222° |
| 2026-04-26 16:29 | 59.26805 | 38.00394 | 366 ft | 12 kts | 229° |
| 2026-04-26 16:29 | 59.26811 | 38.00473 | 368 ft | 22 kts | 43° |
| 2026-04-26 16:29 | 59.27188 | 38.01138 | 369 ft | 125 kts | 42° |
| 2026-04-26 16:29 | 59.27998 | 38.02546 | 835 ft | 177 kts | 42° |
| 2026-04-26 16:30 | 59.29007 | 38.04223 | 1686 ft | 198 kts | 41° |
| 2026-04-26 16:30 | 59.30061 | 38.05976 | 2510 ft | 202 kts | 43° |
| 2026-04-26 16:30 | 59.31166 | 38.07899 | 3330 ft | 226 kts | 42° |
| 2026-04-26 16:30 | 59.32408 | 38.10101 | 4069 ft | 257 kts | 42° |
| 2026-04-26 16:31 | 59.33902 | 38.12146 | 4811 ft | 265 kts | 20° |
| 2026-04-26 16:31 | 59.35705 | 38.12351 | 5571 ft | 271 kts | 345° |
| 2026-04-26 16:31 | 59.37297 | 38.10461 | 6333 ft | 274 kts | 311° |
| 2026-04-26 16:31 | 59.38479 | 38.07517 | 7058 ft | 277 kts | 306° |
| 2026-04-26 16:32 | 59.39620 | 38.04520 | 7799 ft | 278 kts | 305° |
| 2026-04-26 16:32 | 59.40395 | 38.02484 | 8297 ft | 279 kts | 305° |
| 2026-04-26 16:32 | 59.41948 | 37.98414 | 9269 ft | 285 kts | 304° |
| 2026-04-26 16:32 | 59.43151 | 37.95298 | 10015 ft | 292 kts | 305° |
| 2026-04-26 16:33 | 59.44423 | 37.92147 | 10740 ft | 294 kts | 306° |
| 2026-04-26 16:33 | 59.45711 | 37.88990 | 11510 ft | 300 kts | 306° |
| 2026-04-26 16:33 | 59.47030 | 37.85753 | 12268 ft | 305 kts | 305° |
| 2026-04-26 16:33 | 59.48371 | 37.82461 | 13032 ft | 315 kts | 305° |
| 2026-04-26 16:34 | 59.49777 | 37.78997 | 13773 ft | 338 kts | 304° |
| 2026-04-26 16:34 | 59.51290 | 37.75269 | 14512 ft | 354 kts | 304° |
| 2026-04-26 16:34 | 59.52835 | 37.71469 | 15251 ft | 361 kts | 304° |
| 2026-04-26 16:34 | 59.54426 | 37.67558 | 16020 ft | 364 kts | 304° |
| 2026-04-26 16:35 | 59.55999 | 37.63688 | 16764 ft | 368 kts | 303° |
| 2026-04-26 16:35 | 59.57613 | 37.59708 | 17527 ft | 373 kts | 303° |
| 2026-04-26 16:35 | 59.59251 | 37.55666 | 18289 ft | 379 kts | 302° |
| 2026-04-26 16:35 | 59.60852 | 37.51507 | 19057 ft | 379 kts | 295° |
| 2026-04-26 16:36 | 59.62076 | 37.46946 | 19813 ft | 379 kts | 288° |
| 2026-04-26 16:36 | 59.63210 | 37.42305 | 20554 ft | 383 kts | 288° |
| 2026-04-26 16:36 | 59.64384 | 37.37531 | 21326 ft | 387 kts | 288° |
| 2026-04-26 16:36 | 59.65567 | 37.32716 | 22086 ft | 390 kts | 287° |
| 2026-04-26 16:37 | 59.66760 | 37.27852 | 22847 ft | 394 kts | 287° |
| 2026-04-26 16:37 | 59.67802 | 37.22859 | 23619 ft | 387 kts | 275° |
| 2026-04-26 16:37 | 59.68326 | 37.17683 | 24358 ft | 386 kts | 270° |
| 2026-04-26 16:37 | 59.68651 | 37.14167 | 24852 ft | 389 kts | 271° |
| 2026-04-26 16:38 | 59.69311 | 37.07132 | 25836 ft | 393 kts | 271° |
| 2026-04-26 16:38 | 59.69811 | 37.01796 | 26570 ft | 396 kts | 272° |
| 2026-04-26 16:38 | 59.70312 | 36.96442 | 27119 ft | 402 kts | 272° |
| 2026-04-26 16:38 | 59.70822 | 36.90970 | 27581 ft | 408 kts | 273° |
| 2026-04-26 16:39 | 59.71340 | 36.85413 | 28036 ft | 413 kts | 274° |
| 2026-04-26 16:39 | 59.71864 | 36.79779 | 28518 ft | 418 kts | 274° |
| 2026-04-26 16:39 | 59.72387 | 36.74145 | 28941 ft | 422 kts | 274° |
| 2026-04-26 16:39 | 59.72924 | 36.68333 | 29380 ft | 426 kts | 275° |
| 2026-04-26 16:40 | 59.73459 | 36.62553 | 29786 ft | 430 kts | 275° |
| 2026-04-26 16:40 | 59.73994 | 36.56728 | 30131 ft | 434 kts | 276° |
| 2026-04-26 16:40 | 59.74537 | 36.50807 | 30469 ft | 438 kts | 276° |
| 2026-04-26 16:40 | 59.75077 | 36.44882 | 30758 ft | 442 kts | 276° |
| 2026-04-26 16:41 | 59.75624 | 36.38872 | 31042 ft | 445 kts | 276° |
| 2026-04-26 16:41 | 59.76176 | 36.32759 | 31339 ft | 447 kts | 276° |
| 2026-04-26 16:41 | 59.76726 | 36.26642 | 31638 ft | 449 kts | 276° |
| 2026-04-26 16:41 | 59.77266 | 36.20596 | 31904 ft | 452 kts | 276° |
| 2026-04-26 16:42 | 59.77813 | 36.14443 | 32153 ft | 455 kts | 277° |
| 2026-04-26 16:42 | 59.78358 | 36.08282 | 32424 ft | 456 kts | 277° |
| 2026-04-26 16:42 | 59.78904 | 36.02067 | 32754 ft | 455 kts | 277° |
| 2026-04-26 16:42 | 59.79441 | 35.95940 | 33096 ft | 453 kts | 277° |
| 2026-04-26 16:43 | 59.79974 | 35.89809 | 33478 ft | 452 kts | 277° |
| 2026-04-26 16:43 | 59.80506 | 35.83655 | 33850 ft | 451 kts | 278° |
| 2026-04-26 16:43 | 59.81037 | 35.77478 | 34212 ft | 451 kts | 278° |
| 2026-04-26 16:43 | 59.81559 | 35.71365 | 34545 ft | 450 kts | 278° |
| 2026-04-26 16:44 | 59.82083 | 35.65203 | 34880 ft | 450 kts | 278° |
| 2026-04-26 16:44 | 59.82603 | 35.59044 | 35178 ft | 450 kts | 278° |
| 2026-04-26 16:44 | 59.83120 | 35.52885 | 35465 ft | 450 kts | 278° |
| 2026-04-26 16:44 | 59.83633 | 35.46733 | 35730 ft | 450 kts | 278° |
| 2026-04-26 16:45 | 59.84141 | 35.40605 | 35986 ft | 450 kts | 278° |
| 2026-04-26 16:45 | 59.84649 | 35.34450 | 36218 ft | 451 kts | 278° |
| 2026-04-26 16:45 | 59.85153 | 35.28299 | 36456 ft | 451 kts | 277° |
| 2026-04-26 16:45 | 59.85651 | 35.22180 | 36678 ft | 451 kts | 278° |
| 2026-04-26 16:46 | 59.86155 | 35.15955 | 36893 ft | 451 kts | 278° |
| 2026-04-26 16:46 | 59.86655 | 35.09741 | 37080 ft | 452 kts | 278° |
| 2026-04-26 16:46 | 59.87147 | 35.03582 | 37279 ft | 452 kts | 278° |
| 2026-04-26 16:46 | 59.87632 | 34.97474 | 37389 ft | 454 kts | 278° |
| 2026-04-26 16:47 | 59.88616 | 34.84969 | 37403 ft | 457 kts | 278° |
| 2026-04-26 16:47 | 59.89585 | 34.72504 | 37242 ft | 459 kts | 278° |
| 2026-04-26 16:48 | 59.90068 | 34.66227 | 36768 ft | 461 kts | 278° |
| 2026-04-26 16:48 | 59.90551 | 34.59920 | 36217 ft | 459 kts | 278° |
| 2026-04-26 16:48 | 59.91031 | 34.53614 | 35626 ft | 457 kts | 278° |
| 2026-04-26 16:48 | 59.91497 | 34.47439 | 35066 ft | 454 kts | 278° |
| 2026-04-26 16:49 | 59.91964 | 34.41230 | 34503 ft | 453 kts | 278° |
| 2026-04-26 16:49 | 59.92426 | 34.35033 | 33940 ft | 453 kts | 278° |
| 2026-04-26 16:49 | 59.92883 | 34.28866 | 33381 ft | 454 kts | 277° |
| 2026-04-26 16:49 | 59.93346 | 34.22573 | 32847 ft | 455 kts | 277° |
| 2026-04-26 16:50 | 59.93798 | 34.16387 | 32271 ft | 456 kts | 277° |
| 2026-04-26 16:50 | 59.94253 | 34.10136 | 31696 ft | 453 kts | 277° |
| 2026-04-26 16:50 | 59.94699 | 34.03952 | 31140 ft | 449 kts | 276° |
| 2026-04-26 16:50 | 59.95141 | 33.97784 | 30586 ft | 445 kts | 276° |
| 2026-04-26 16:51 | 59.95573 | 33.91726 | 30033 ft | 441 kts | 276° |
| 2026-04-26 16:51 | 59.96000 | 33.85684 | 29504 ft | 437 kts | 276° |
| 2026-04-26 16:51 | 59.96418 | 33.79733 | 28956 ft | 434 kts | 276° |
| 2026-04-26 16:51 | 59.96827 | 33.73859 | 28414 ft | 431 kts | 276° |
| 2026-04-26 16:52 | 59.97236 | 33.67970 | 27891 ft | 427 kts | 276° |
| 2026-04-26 16:52 | 59.97501 | 33.64111 | 27539 ft | 425 kts | 277° |
| 2026-04-26 16:52 | 59.98032 | 33.56366 | 26835 ft | 420 kts | 277° |
| 2026-04-26 16:52 | 59.98421 | 33.50626 | 26319 ft | 416 kts | 277° |
| 2026-04-26 16:53 | 59.98808 | 33.44871 | 25805 ft | 414 kts | 277° |
| 2026-04-26 16:53 | 59.99186 | 33.39205 | 25294 ft | 415 kts | 277° |
| 2026-04-26 16:53 | 59.99565 | 33.33509 | 24763 ft | 413 kts | 277° |
| 2026-04-26 16:53 | 59.99936 | 33.27894 | 24261 ft | 409 kts | 277° |
| 2026-04-26 16:54 | 60.00301 | 33.22328 | 23758 ft | 406 kts | 277° |
| 2026-04-26 16:54 | 60.00664 | 33.16757 | 23256 ft | 403 kts | 278° |
| 2026-04-26 16:54 | 60.01019 | 33.11270 | 22755 ft | 398 kts | 278° |
| 2026-04-26 16:54 | 60.01368 | 33.05845 | 22275 ft | 394 kts | 278° |
| 2026-04-26 16:55 | 60.01714 | 33.00428 | 21795 ft | 391 kts | 278° |
| 2026-04-26 16:55 | 60.02054 | 32.95081 | 21316 ft | 388 kts | 278° |
| 2026-04-26 16:55 | 60.02387 | 32.89812 | 20848 ft | 385 kts | 279° |
| 2026-04-26 16:55 | 60.02719 | 32.84497 | 20371 ft | 382 kts | 279° |
| 2026-04-26 16:56 | 60.03363 | 32.74084 | 19436 ft | 376 kts | 279° |
| 2026-04-26 16:56 | 60.03679 | 32.68939 | 18975 ft | 373 kts | 279° |
| 2026-04-26 16:56 | 60.03993 | 32.63785 | 18517 ft | 370 kts | 279° |
| 2026-04-26 16:57 | 60.04299 | 32.58723 | 18059 ft | 368 kts | 280° |
| 2026-04-26 16:57 | 60.04604 | 32.53640 | 17602 ft | 365 kts | 280° |
| 2026-04-26 16:57 | 60.05201 | 32.43647 | 16700 ft | 360 kts | 280° |
| 2026-04-26 16:58 | 60.05499 | 32.38658 | 16252 ft | 358 kts | 280° |
| 2026-04-26 16:58 | 60.05693 | 32.35365 | 15956 ft | 356 kts | 280° |
| 2026-04-26 16:58 | 60.05371 | 32.24195 | 14962 ft | 341 kts | 256° |
| 2026-04-26 16:59 | 60.04626 | 32.19693 | 14688 ft | 329 kts | 253° |
| 2026-04-26 16:59 | 60.03142 | 32.11294 | 14203 ft | 313 kts | 253° |
| 2026-04-26 17:00 | 60.01682 | 32.03025 | 13615 ft | 313 kts | 253° |
| 2026-04-26 17:00 | 60.00212 | 31.94743 | 13012 ft | 311 kts | 253° |
| 2026-04-26 17:00 | 59.99480 | 31.90630 | 12713 ft | 310 kts | 253° |
| 2026-04-26 17:01 | 59.98748 | 31.86523 | 12412 ft | 308 kts | 253° |
| 2026-04-26 17:01 | 59.98024 | 31.82475 | 12120 ft | 306 kts | 253° |
| 2026-04-26 17:01 | 59.97307 | 31.78470 | 11815 ft | 304 kts | 253° |
| 2026-04-26 17:01 | 59.96579 | 31.74415 | 11512 ft | 303 kts | 253° |
| 2026-04-26 17:02 | 59.95874 | 31.70492 | 11222 ft | 301 kts | 253° |
| 2026-04-26 17:02 | 59.95166 | 31.66557 | 10973 ft | 299 kts | 253° |
| 2026-04-26 17:02 | 59.94458 | 31.62632 | 10725 ft | 299 kts | 253° |
| 2026-04-26 17:02 | 59.93750 | 31.58713 | 10470 ft | 298 kts | 253° |
| 2026-04-26 17:03 | 59.93044 | 31.54813 | 10219 ft | 298 kts | 253° |
| 2026-04-26 17:03 | 59.92337 | 31.50920 | 9968 ft | 297 kts | 253° |
| 2026-04-26 17:03 | 59.91633 | 31.47044 | 9718 ft | 296 kts | 253° |
| 2026-04-26 17:03 | 59.90927 | 31.43169 | 9475 ft | 295 kts | 253° |
| 2026-04-26 17:04 | 59.90226 | 31.39327 | 9225 ft | 294 kts | 254° |
| 2026-04-26 17:04 | 59.89522 | 31.35477 | 8973 ft | 292 kts | 254° |
| 2026-04-26 17:04 | 59.88811 | 31.31597 | 8724 ft | 291 kts | 253° |
| 2026-04-26 17:04 | 59.88114 | 31.27803 | 8483 ft | 291 kts | 253° |
| 2026-04-26 17:05 | 59.87424 | 31.24053 | 8238 ft | 290 kts | 253° |
| 2026-04-26 17:05 | 59.86735 | 31.20318 | 7986 ft | 289 kts | 253° |
| 2026-04-26 17:05 | 59.86033 | 31.16515 | 7729 ft | 287 kts | 253° |
| 2026-04-26 17:05 | 59.85337 | 31.12757 | 7481 ft | 286 kts | 254° |
| 2026-04-26 17:06 | 59.84641 | 31.09007 | 7226 ft | 286 kts | 254° |
| 2026-04-26 17:06 | 59.83940 | 31.05238 | 6968 ft | 285 kts | 254° |
| 2026-04-26 17:06 | 59.83246 | 31.01511 | 6662 ft | 285 kts | 253° |
| 2026-04-26 17:06 | 59.82553 | 30.97807 | 6312 ft | 283 kts | 255° |
| 2026-04-26 17:07 | 59.81871 | 30.94159 | 5963 ft | 280 kts | 255° |
| 2026-04-26 17:07 | 59.81209 | 30.90644 | 5671 ft | 272 kts | 256° |
| 2026-04-26 17:07 | 59.80550 | 30.87145 | 5341 ft | 266 kts | 257° |
| 2026-04-26 17:07 | 59.79919 | 30.83792 | 5028 ft | 260 kts | 257° |
| 2026-04-26 17:08 | 59.79290 | 30.80444 | 4693 ft | 257 kts | 258° |
| 2026-04-26 17:08 | 59.78671 | 30.77163 | 4371 ft | 253 kts | 258° |
| 2026-04-26 17:08 | 59.78061 | 30.73946 | 4075 ft | 245 kts | 259° |
| 2026-04-26 17:08 | 59.77478 | 30.70882 | 3796 ft | 236 kts | 260° |
| 2026-04-26 17:09 | 59.76908 | 30.67877 | 3486 ft | 229 kts | 261° |
| 2026-04-26 17:09 | 59.76534 | 30.65916 | 3325 ft | 224 kts | 261° |
| 2026-04-26 17:09 | 59.75816 | 30.62134 | 2949 ft | 219 kts | 261° |
| 2026-04-26 17:09 | 59.75290 | 30.59366 | 2701 ft | 214 kts | 261° |
| 2026-04-26 17:10 | 59.74945 | 30.56622 | 2507 ft | 189 kts | 286° |
| 2026-04-26 17:10 | 59.75205 | 30.54333 | 2555 ft | 166 kts | 297° |
| 2026-04-26 17:10 | 59.75482 | 30.52102 | 2455 ft | 166 kts | 296° |
| 2026-04-26 17:10 | 59.75782 | 30.49899 | 2412 ft | 164 kts | 298° |
| 2026-04-26 17:11 | 59.76107 | 30.47714 | 2186 ft | 165 kts | 298° |
| 2026-04-26 17:11 | 59.76411 | 30.45621 | 1971 ft | 148 kts | 298° |
| 2026-04-26 17:11 | 59.76672 | 30.43792 | 1792 ft | 123 kts | 301° |
| 2026-04-26 17:11 | 59.76892 | 30.42282 | 1676 ft | 112 kts | 302° |
| 2026-04-26 17:12 | 59.77355 | 30.39370 | 1325 ft | 109 kts | 300° |
| 2026-04-26 17:12 | 59.77578 | 30.37927 | 1176 ft | 109 kts | 300° |
| 2026-04-26 17:13 | 59.78006 | 30.35015 | 867 ft | 109 kts | 296° |
| 2026-04-26 17:13 | 59.78216 | 30.33571 | 700 ft | 109 kts | 298° |
| 2026-04-26 17:13 | 59.78649 | 30.30703 | 397 ft | 107 kts | 296° |
| 2026-04-26 17:14 | 59.78873 | 30.29269 | 257 ft | 106 kts | 296° |
| 2026-04-26 17:14 | 59.79265 | 30.26733 | 86 ft | 69 kts | 285° |
| 2026-04-26 17:14 | 59.79381 | 30.25948 | 84 ft | 54 kts | 287° |
| 2026-04-26 17:15 | 59.79599 | 30.24479 | 80 ft | 57 kts | 287° |
| 2026-04-26 17:15 | 59.79699 | 30.23809 | 80 ft | 40 kts | 288° |
| 2026-04-26 17:15 | 59.79783 | 30.23334 | 78 ft | 33 kts | 300° |
| 2026-04-26 17:16 | 59.79904 | 30.23046 | 77 ft | 18 kts | 315° |
| 2026-04-26 17:16 | 59.79964 | 30.23032 | 77 ft | 0 kts | 47° |
| 2026-04-26 17:17 | 59.79980 | 30.23081 | 77 ft | 8 kts | 76° |
| 2026-04-26 17:17 | 59.79963 | 30.23234 | 77 ft | 13 kts | 106° |
| 2026-04-26 17:17 | 59.79933 | 30.23447 | 78 ft | 17 kts | 108° |
| 2026-04-26 17:17 | 59.79894 | 30.23706 | 80 ft | 20 kts | 106° |
| 2026-04-26 17:18 | 59.79851 | 30.23992 | 80 ft | 23 kts | 107° |
| 2026-04-26 17:18 | 59.79805 | 30.24300 | 80 ft | 19 kts | 105° |
| 2026-04-26 17:18 | 59.79770 | 30.24544 | 80 ft | 20 kts | 107° |
| 2026-04-26 17:18 | 59.79723 | 30.24849 | 84 ft | 26 kts | 106° |
| 2026-04-26 17:19 | 59.79630 | 30.25486 | 86 ft | 18 kts | 105° |
| 2026-04-26 17:19 | 59.79593 | 30.25733 | 86 ft | 15 kts | 107° |
| 2026-04-26 17:19 | 59.79566 | 30.25918 | 85 ft | 12 kts | 91° |
| 2026-04-26 17:20 | 59.79625 | 30.26011 | 86 ft | 8 kts | 18° |
| 2026-04-26 17:20 | 59.79666 | 30.26045 | 86 ft | 11 kts | 20° |
| 2026-04-26 17:20 | 59.79807 | 30.26142 | 84 ft | 21 kts | 13° |
| 2026-04-26 17:20 | 59.79929 | 30.26212 | 84 ft | 16 kts | 15° |
| 2026-04-26 17:21 | 59.80037 | 30.26267 | 84 ft | 16 kts | 16° |
| 2026-04-26 17:21 | 59.80161 | 30.26347 | 84 ft | 19 kts | 18° |
| 2026-04-26 17:21 | 59.80300 | 30.26430 | 79 ft | 17 kts | 16° |
| 2026-04-26 17:21 | 59.80394 | 30.26457 | 77 ft | 8 kts | 14° |
| 2026-04-26 17:22 | 59.80444 | 30.26547 | 75 ft | 13 kts | 94° |
| 2026-04-26 17:22 | 59.80420 | 30.26720 | 75 ft | 15 kts | 108° |
| 2026-04-26 17:22 | 59.80387 | 30.26955 | 76 ft | 19 kts | 107° |
| 2026-04-26 17:22 | 59.80348 | 30.27219 | 74 ft | 18 kts | 107° |
| 2026-04-26 17:23 | 59.80307 | 30.27477 | 74 ft | 20 kts | 104° |
| 2026-04-26 17:23 | 59.80262 | 30.27774 | 73 ft | 24 kts | 106° |
| 2026-04-26 17:23 | 59.80216 | 30.28083 | 71 ft | 23 kts | 106° |
| 2026-04-26 17:23 | 59.80166 | 30.28419 | 71 ft | 27 kts | 105° |
| 2026-04-26 17:24 | 59.80114 | 30.28769 | 71 ft | 24 kts | 106° |
| 2026-04-26 17:24 | 59.80052 | 30.28916 | 71 ft | 15 kts | 195° |
| 2026-04-26 17:24 | 59.79941 | 30.28850 | 72 ft | 12 kts | 194° |
| 2026-04-26 17:24 | 59.79895 | 30.28905 | 73 ft | 9 kts | 107° |
| 2026-04-26 17:25 | 59.79889 | 30.28947 | 73 ft | 0 kts | 104° |